Terminal Aerodrome Forecast
Issued by NWS

Home | Current Version | Previous Version | Text Only | Print | Product List | Glossary On
Versions: 1 2 3 4 5 6 7 8 9 10 11 12 13 14 15 16
000
FTUS42 TJSJ 301700
TAFKPK
TAF
TKPK 301724Z 3018/3118 09009KT P6SM VCTS SCT014CB SCT030 BKN080
      TEMPO 3018/3020 VRB12G21KT 3SM TSRA BKN018CB OVC030
     FM302300 07006KT P6SM SCT030
     FM311300 11013KT P6SM SCT025
      AMD NOT SKED 3102/3111=

USA.gov is the U.S. government's official web portal to all federal, state and local government web resources and services.